Time;durP1;ratioP1;P1;durP2;ratioP2;P2;SDS_P1;SDS_P2;PMS_P1;PMS_P2;Temp;Humidity;BMP_temperature;BMP_pressure;BME280_temperature;BME280_humidity;BME280_pressure;Samples;Min_cycle;Max_cycle;Signal;HPM_P1;HPM_P2
2021/01/25 00:01:08;;;;;;;58.47;15.63;;;0.50;99.90;;;;;;4960788;27;20097;-83
2021/01/25 00:03:32;;;;;;;58.22;16.15;;;0.50;99.90;;;;;;4964463;27;20562;-84
2021/01/25 00:05:56;;;;;;;59.13;16.20;;;;;;;;;;4961723;27;20094;-84
2021/01/25 00:08:20;;;;;;;55.58;14.80;;;0.50;99.90;;;;;;4980783;27;20494;-85
2021/01/25 00:10:45;;;;;;;66.05;15.90;;;0.50;99.90;;;;;;4960228;27;20679;-85
2021/01/25 00:13:11;;;;;;;54.20;15.27;;;0.50;99.90;;;;;;4963052;27;21841;-84
2021/01/25 00:15:34;;;;;;;45.72;12.52;;;0.60;99.90;;;;;;4964841;27;20594;-85
2021/01/25 00:17:57;;;;;;;40.25;12.20;;;0.60;99.90;;;;;;4964862;27;20096;-84
2021/01/25 00:20:21;;;;;;;34.55;10.65;;;0.60;99.90;;;;;;4962117;27;20092;-85
2021/01/25 00:22:45;;;;;;;34.63;9.45;;;0.60;99.90;;;;;;4963348;27;20093;-84
2021/01/25 00:25:10;;;;;;;24.40;8.05;;;0.60;99.90;;;;;;4966534;27;20094;-84
2021/01/25 00:27:33;;;;;;;28.13;9.23;;;0.60;99.90;;;;;;4976119;27;20080;-84
2021/01/25 00:29:58;;;;;;;30.50;8.43;;;0.60;99.90;;;;;;4971446;27;20092;-84
2021/01/25 00:32:21;;;;;;;28.25;8.13;;;0.60;99.90;;;;;;4980814;27;20466;-83
2021/01/25 00:34:45;;;;;;;26.67;9.45;;;0.60;99.90;;;;;;4962510;27;20094;-83
2021/01/25 00:37:08;;;;;;;25.30;8.68;;;0.60;99.90;;;;;;4957559;27;20116;-85
2021/01/25 00:39:33;;;;;;;24.50;7.82;;;0.60;99.90;;;;;;4964252;27;20103;-84
2021/01/25 00:41:57;;;;;;;31.88;8.00;;;0.60;99.90;;;;;;4964272;27;20088;-85
2021/01/25 00:44:21;;;;;;;28.08;8.57;;;0.60;99.90;;;;;;4960714;27;20533;-85
2021/01/25 00:46:46;;;;;;;29.80;8.48;;;0.60;99.90;;;;;;4962832;27;20091;-85
2021/01/25 00:49:10;;;;;;;32.92;8.35;;;0.60;99.90;;;;;;4953488;27;20085;-81
2021/01/25 00:51:33;;;;;;;30.15;8.77;;;0.60;99.90;;;;;;4984269;27;20087;-84
2021/01/25 00:54:00;;;;;;;40.15;9.10;;;0.60;99.90;;;;;;4972088;27;20172;-84
2021/01/25 00:56:25;;;;;;;34.20;8.88;;;;;;;;;;4976671;27;20091;-86
2021/01/25 00:58:48;;;;;;;30.10;8.32;;;0.60;99.90;;;;;;4961711;27;20099;-86
2021/01/25 01:01:11;;;;;;;31.13;8.82;;;0.60;99.90;;;;;;4962834;27;20148;-83
2021/01/25 01:03:34;;;;;;;39.00;8.30;;;0.60;99.90;;;;;;4966180;27;20094;-85
2021/01/25 01:05:57;;;;;;;29.67;7.32;;;0.60;99.90;;;;;;4952533;27;20099;-84
2021/01/25 01:08:21;;;;;;;31.80;8.93;;;0.70;99.90;;;;;;4961307;27;20131;-84
2021/01/25 01:10:44;;;;;;;34.88;8.60;;;0.60;99.90;;;;;;4964520;27;20429;-84
2021/01/25 01:13:10;;;;;;;30.50;8.02;;;0.60;99.90;;;;;;4959512;27;20094;-87
2021/01/25 01:15:35;;;;;;;27.92;7.32;;;0.60;99.90;;;;;;4962510;27;20079;-85
2021/01/25 01:17:59;;;;;;;22.20;6.63;;;0.60;99.90;;;;;;4956281;27;20512;-85
2021/01/25 01:20:23;;;;;;;28.90;7.32;;;0.70;99.90;;;;;;4962823;27;20087;-85
2021/01/25 01:22:46;;;;;;;20.38;6.45;;;0.70;99.90;;;;;;4961924;27;20099;-85
2021/01/25 01:25:10;;;;;;;22.83;6.88;;;0.70;99.90;;;;;;4958658;27;20089;-84
2021/01/25 01:27:33;;;;;;;24.70;6.82;;;0.70;99.90;;;;;;4963397;27;20116;-84
2021/01/25 01:29:59;;;;;;;28.27;7.30;;;0.70;99.90;;;;;;4953139;27;20119;-84
2021/01/25 01:32:22;;;;;;;25.65;7.40;;;0.70;99.90;;;;;;4961338;27;20107;-85
2021/01/25 01:34:45;;;;;;;31.15;7.03;;;0.70;99.90;;;;;;4959176;27;20091;-86
2021/01/25 01:37:09;;;;;;;37.63;8.38;;;0.70;99.90;;;;;;4979672;27;20088;-86
2021/01/25 01:39:33;;;;;;;31.70;8.50;;;0.70;99.90;;;;;;4962648;27;20098;-85
2021/01/25 01:41:56;;;;;;;33.85;8.75;;;0.70;99.90;;;;;;4964676;27;20088;-83
2021/01/25 01:44:19;;;;;;;35.05;8.27;;;0.70;99.90;;;;;;4960256;27;20094;-85
2021/01/25 01:46:45;;;;;;;38.20;8.50;;;0.70;99.90;;;;;;4964977;27;20508;-84
2021/01/25 01:49:08;;;;;;;;;;;0.70;99.90;;;;;;4982642;27;20575;-84
2021/01/25 01:51:34;;;;;;;43.97;8.63;;;;;;;;;;4960501;27;19972;-85
2021/01/25 01:53:57;;;;;;;36.88;8.52;;;0.70;99.90;;;;;;4981942;27;20087;-85
2021/01/25 01:56:21;;;;;;;34.80;7.22;;;0.60;99.90;;;;;;4969198;27;20184;-84
2021/01/25 01:58:45;;;;;;;36.78;8.05;;;0.70;99.90;;;;;;4966444;27;20143;-84
2021/01/25 02:01:09;;;;;;;44.13;8.57;;;0.70;99.90;;;;;;4959474;27;20085;-84
2021/01/25 02:03:34;;;;;;;42.10;8.13;;;0.70;99.90;;;;;;4962606;27;22489;-85
2021/01/25 02:05:59;;;;;;;32.90;9.00;;;0.70;99.90;;;;;;4965568;27;20096;-85
2021/01/25 02:08:23;;;;;;;43.65;8.82;;;0.70;99.90;;;;;;4964826;27;20579;-84
2021/01/25 02:10:50;;;;;;;39.95;8.50;;;0.70;99.90;;;;;;4964101;27;20091;-84
2021/01/25 02:13:14;;;;;;;48.80;10.00;;;0.70;99.90;;;;;;4961318;27;20167;-84
2021/01/25 02:15:38;;;;;;;42.53;9.13;;;0.70;99.90;;;;;;4962906;27;20080;-83
2021/01/25 02:18:02;;;;;;;35.42;8.10;;;;;;;;;;4968559;27;20451;-84
2021/01/25 02:20:34;;;;;;;31.95;7.15;;;0.70;99.90;;;;;;4973354;27;20116;-84
2021/01/25 02:23:33;;;;;;;37.30;7.72;;;0.70;99.90;;;;;;4976507;27;20177;-85
2021/01/25 02:26:06;;;;;;;40.28;8.05;;;0.70;99.90;;;;;;4964066;27;20096;-84
2021/01/25 02:28:30;;;;;;;42.78;8.05;;;0.70;99.90;;;;;;4963585;27;20079;-84
2021/01/25 02:30:55;;;;;;;44.43;9.67;;;0.70;99.90;;;;;;4978764;27;20088;-84
2021/01/25 02:33:21;;;;;;;37.47;8.07;;;0.70;99.90;;;;;;4983240;27;20554;-85
2021/01/25 02:35:47;;;;;;;34.53;7.80;;;0.80;99.90;;;;;;4975049;27;20430;-84
2021/01/25 02:38:12;;;;;;;45.35;8.63;;;0.80;99.90;;;;;;4967137;27;20089;-84
2021/01/25 02:40:36;;;;;;;;;;;0.70;99.90;;;;;;4962456;27;20537;-85
2021/01/25 02:42:59;;;;;;;39.97;8.23;;;0.80;99.90;;;;;;4968717;27;26154;-84
2021/01/25 02:45:24;;;;;;;37.28;8.75;;;0.70;99.90;;;;;;4964972;27;20087;-84
2021/01/25 02:47:49;;;;;;;33.00;7.90;;;0.70;99.90;;;;;;4963180;27;20226;-84
2021/01/25 02:50:14;;;;;;;28.60;7.88;;;;;;;;;;4967121;27;20446;-85
2021/01/25 02:52:37;;;;;;;31.95;7.95;;;0.70;99.90;;;;;;4960712;27;20084;-83
2021/01/25 02:55:02;;;;;;;28.42;7.72;;;0.70;99.90;;;;;;4963799;27;20086;-84
2021/01/25 02:57:26;;;;;;;34.80;8.63;;;0.70;99.90;;;;;;4967816;27;20510;-85
2021/01/25 02:59:51;;;;;;;30.20;8.32;;;0.70;99.90;;;;;;4964882;27;20097;-84
2021/01/25 03:02:16;;;;;;;24.65;7.22;;;0.70;99.90;;;;;;4963820;27;20084;-83
2021/01/25 03:04:41;;;;;;;38.00;8.40;;;0.70;99.90;;;;;;4973326;27;20122;-84
2021/01/25 03:07:05;;;;;;;35.30;8.20;;;0.70;99.90;;;;;;4969541;27;20474;-84
2021/01/25 03:09:28;;;;;;;29.85;7.03;;;0.70;99.90;;;;;;4963941;27;20090;-85
2021/01/25 03:11:52;;;;;;;27.60;8.15;;;1.30;99.90;;;;;;4963511;27;20087;-84
2021/01/25 03:14:16;;;;;;;39.42;7.97;;;0.80;99.90;;;;;;4958911;27;20089;-84
2021/01/25 03:16:39;;;;;;;31.20;7.30;;;0.70;99.90;;;;;;4982765;27;20089;-84
2021/01/25 03:19:03;;;;;;;31.15;7.88;;;1.80;99.90;;;;;;4965432;27;20092;-83
2021/01/25 03:21:27;;;;;;;41.35;9.73;;;0.70;99.90;;;;;;4957490;27;20518;-84
2021/01/25 03:23:52;;;;;;;32.78;8.38;;;0.70;99.90;;;;;;4948838;27;20640;-84
2021/01/25 03:26:15;;;;;;;40.30;8.55;;;0.70;99.90;;;;;;4965642;27;20103;-84
2021/01/25 03:28:39;;;;;;;43.58;8.85;;;0.80;99.90;;;;;;4962301;27;20096;-84
2021/01/25 03:31:02;;;;;;;48.45;9.40;;;0.70;99.90;;;;;;4965814;27;20096;-84
2021/01/25 03:33:25;;;;;;;41.95;8.82;;;0.70;99.90;;;;;;4965952;27;20097;-84
2021/01/25 03:35:49;;;;;;;30.98;8.55;;;0.70;99.90;;;;;;4963542;27;20090;-85
2021/01/25 03:38:13;;;;;;;42.90;8.52;;;0.70;99.90;;;;;;4964147;27;20094;-85
2021/01/25 03:40:38;;;;;;;47.90;10.35;;;0.70;99.90;;;;;;4962256;27;20097;-84
2021/01/25 03:43:01;;;;;;;26.00;9.07;;;0.70;99.90;;;;;;4960034;27;20088;-83
2021/01/25 03:45:24;;;;;;;41.28;9.82;;;0.70;99.90;;;;;;4961847;27;20180;-83
2021/01/25 03:47:49;;;;;;;45.85;9.98;;;0.80;99.90;;;;;;4971976;27;20522;-84
2021/01/25 03:50:14;;;;;;;48.80;10.30;;;0.70;99.90;;;;;;4966997;27;20563;-83
2021/01/25 03:52:41;;;;;;;44.70;10.45;;;0.70;99.90;;;;;;4969639;27;20117;-85
2021/01/25 03:55:07;;;;;;;48.20;10.45;;;0.70;99.90;;;;;;4973614;27;20531;-85
2021/01/25 03:57:32;;;;;;;47.25;10.63;;;0.70;99.90;;;;;;4964144;27;20102;-84
2021/01/25 03:59:55;;;;;;;54.80;12.07;;;0.70;99.90;;;;;;4965057;27;20084;-85
2021/01/25 04:02:18;;;;;;;55.92;11.35;;;0.80;99.90;;;;;;4956798;27;20091;-85
2021/01/25 04:04:41;;;;;;;52.83;12.63;;;;;;;;;;4963541;27;20143;-84
2021/01/25 04:07:04;;;;;;;58.55;13.30;;;0.70;99.90;;;;;;4953290;27;20138;-84
2021/01/25 04:09:28;;;;;;;73.80;14.50;;;0.80;99.90;;;;;;4978715;27;20092;-84
2021/01/25 04:11:52;;;;;;;56.95;13.02;;;0.70;99.90;;;;;;4965488;27;21578;-84
2021/01/25 04:14:15;;;;;;;56.67;12.73;;;0.80;99.90;;;;;;4966877;27;20088;-84
2021/01/25 04:16:39;;;;;;;73.57;13.90;;;0.70;99.90;;;;;;4960762;27;20100;-83
2021/01/25 04:19:04;;;;;;;68.13;14.20;;;0.70;99.90;;;;;;4953603;27;20097;-84
2021/01/25 04:21:27;;;;;;;71.93;15.00;;;0.70;99.90;;;;;;4963167;27;20105;-84
2021/01/25 04:23:50;;;;;;;73.38;15.35;;;0.70;99.90;;;;;;4963422;27;20094;-84
2021/01/25 04:26:15;;;;;;;72.60;15.02;;;0.70;99.90;;;;;;4960878;27;20563;-85
2021/01/25 04:28:40;;;;;;;84.38;16.77;;;0.70;99.90;;;;;;4956044;27;20094;-84
2021/01/25 04:31:03;;;;;;;99.63;15.00;;;0.80;99.90;;;;;;4961407;27;20085;-84
2021/01/25 04:33:26;;;;;;;80.30;16.35;;;;;;;;;;4954724;27;20090;-85
2021/01/25 04:35:50;;;;;;;84.20;16.42;;;0.70;99.90;;;;;;4963745;27;20090;-84
2021/01/25 04:38:14;;;;;;;97.15;17.77;;;0.70;99.90;;;;;;4963076;27;20101;-84
2021/01/25 04:40:37;;;;;;;80.80;15.52;;;0.80;99.90;;;;;;4960811;27;20094;-83
2021/01/25 04:43:02;;;;;;;80.47;16.10;;;0.80;99.90;;;;;;4962236;27;20107;-84
2021/01/25 04:45:25;;;;;;;93.15;18.58;;;0.80;99.90;;;;;;4962906;27;20090;-84
2021/01/25 04:47:49;;;;;;;81.47;16.92;;;;;;;;;;4964448;27;20109;-84
2021/01/25 04:50:13;;;;;;;81.85;15.98;;;0.80;99.90;;;;;;4968094;27;20080;-84
2021/01/25 04:52:37;;;;;;;88.40;17.38;;;0.80;99.90;;;;;;4960608;27;20088;-84
2021/01/25 04:55:02;;;;;;;102.50;17.83;;;0.80;99.90;;;;;;4951947;27;20094;-84
2021/01/25 04:57:26;;;;;;;;;;;0.80;99.90;;;;;;4965198;27;20092;-85
2021/01/25 04:59:52;;;;;;;93.55;17.25;;;0.80;99.90;;;;;;4962296;27;19972;-84
2021/01/25 05:02:15;;;;;;;93.05;18.52;;;0.80;99.90;;;;;;4981363;27;20179;-84
2021/01/25 05:04:40;;;;;;;89.40;17.30;;;0.80;99.90;;;;;;4985479;27;20086;-85
2021/01/25 05:07:03;;;;;;;100.10;17.90;;;0.80;99.90;;;;;;4978964;27;20461;-84
2021/01/25 05:09:26;;;;;;;88.95;18.02;;;0.80;99.90;;;;;;4983367;27;20172;-85
2021/01/25 05:11:58;;;;;;;79.70;17.80;;;0.80;99.90;;;;;;4981422;27;20099;-83
2021/01/25 05:14:21;;;;;;;84.18;17.77;;;;;;;;;;4980342;27;20537;-82
2021/01/25 05:16:45;;;;;;;88.63;16.83;;;0.80;99.90;;;;;;4978376;27;20103;-84
2021/01/25 05:19:11;;;;;;;92.25;17.45;;;;;;;;;;4981753;27;20103;-85
2021/01/25 05:21:37;;;;;;;77.90;17.08;;;0.80;99.90;;;;;;4957674;27;20111;-84
2021/01/25 05:24:06;;;;;;;98.88;18.17;;;0.80;99.90;;;;;;4973831;27;20096;-83
2021/01/25 05:26:29;;;;;;;83.72;17.95;;;0.80;99.90;;;;;;4962918;27;20105;-84
2021/01/25 05:28:53;;;;;;;79.75;16.33;;;0.80;99.90;;;;;;4961499;27;20537;-84
2021/01/25 05:31:21;;;;;;;83.70;17.38;;;0.80;99.90;;;;;;4961257;27;20096;-85
2021/01/25 05:33:45;;;;;;;84.70;16.58;;;;;;;;;;4966596;27;20092;-84
2021/01/25 05:36:09;;;;;;;90.78;18.50;;;0.80;99.90;;;;;;4960168;27;20088;-84
2021/01/25 05:38:34;;;;;;;78.18;18.55;;;0.80;99.90;;;;;;4952298;27;20541;-83
2021/01/25 05:40:58;;;;;;;81.25;16.92;;;0.80;99.90;;;;;;4959726;27;20091;-84
2021/01/25 05:43:21;;;;;;;90.68;19.10;;;0.80;99.90;;;;;;4958688;27;20083;-83
2021/01/25 05:45:44;;;;;;;80.05;19.13;;;0.80;99.90;;;;;;4956854;27;20449;-83
2021/01/25 05:48:12;;;;;;;85.82;17.88;;;0.80;99.90;;;;;;4963076;27;20092;-82
2021/01/25 05:50:38;;;;;;;81.28;16.60;;;0.80;99.90;;;;;;4966870;27;20175;-83
2021/01/25 05:53:03;;;;;;;84.00;17.80;;;0.80;99.90;;;;;;4966544;27;20090;-84
2021/01/25 05:55:27;;;;;;;75.15;17.60;;;0.70;99.90;;;;;;4963764;27;20098;-84
2021/01/25 05:57:50;;;;;;;79.25;17.13;;;0.70;99.90;;;;;;4962516;27;20110;-83
2021/01/25 06:00:14;;;;;;;72.10;16.00;;;0.70;99.90;;;;;;4962827;27;20083;-85
2021/01/25 06:02:46;;;;;;;88.57;17.85;;;0.70;99.90;;;;;;4963488;27;20110;-85
2021/01/25 06:05:14;;;;;;;84.53;18.67;;;0.80;99.90;;;;;;4964436;27;20444;-84
2021/01/25 06:07:41;;;;;;;79.50;16.63;;;0.80;99.90;;;;;;4965884;27;20083;-84
2021/01/25 06:10:05;;;;;;;71.53;16.67;;;;;;;;;;4983527;27;20119;-84
2021/01/25 06:12:39;;;;;;;85.97;16.27;;;0.70;99.90;;;;;;4981550;27;20086;-83
2021/01/25 06:15:06;;;;;;;96.22;17.55;;;0.80;99.90;;;;;;4971578;27;20143;-84
2021/01/25 06:17:34;;;;;;;84.60;17.13;;;0.70;99.90;;;;;;4952382;27;20098;-84
2021/01/25 06:19:57;;;;;;;80.07;16.88;;;0.70;99.90;;;;;;4969924;27;20177;-83
2021/01/25 06:22:22;;;;;;;83.65;17.25;;;0.70;99.90;;;;;;4966781;27;20099;-83
2021/01/25 06:24:46;;;;;;;88.35;18.17;;;;;;;;;;4970491;27;20093;-84
2021/01/25 06:27:15;;;;;;;79.25;17.38;;;0.80;99.90;;;;;;4963395;27;20098;-83
2021/01/25 06:29:39;;;;;;;83.70;16.02;;;0.80;99.90;;;;;;4962620;27;20104;-84
2021/01/25 06:32:02;;;;;;;84.65;18.17;;;0.80;99.90;;;;;;4963212;27;20459;-83
2021/01/25 06:34:27;;;;;;;99.30;18.88;;;0.80;99.90;;;;;;4964273;27;20174;-83
2021/01/25 06:36:52;;;;;;;83.13;16.90;;;0.80;99.90;;;;;;4958276;27;20096;-82
2021/01/25 06:39:24;;;;;;;94.05;17.73;;;0.80;99.90;;;;;;4965535;27;20130;-83
2021/01/25 06:41:49;;;;;;;83.70;17.55;;;;;;;;;;4963332;27;20121;-84
2021/01/25 06:44:13;;;;;;;83.25;16.13;;;0.80;99.90;;;;;;4951078;27;20087;-83
2021/01/25 06:46:38;;;;;;;84.78;18.48;;;0.80;99.90;;;;;;4963933;27;20159;-84
2021/01/25 06:49:01;;;;;;;111.47;18.90;;;0.80;99.90;;;;;;4961885;27;20101;-83
2021/01/25 06:51:25;;;;;;;110.53;18.30;;;0.80;99.90;;;;;;4960265;27;20130;-82
2021/01/25 06:53:53;;;;;;;95.72;16.65;;;0.80;99.90;;;;;;4968127;27;20563;-83
2021/01/25 06:56:18;;;;;;;84.38;17.05;;;0.80;99.90;;;;;;4965654;27;20098;-84
2021/01/25 06:58:46;;;;;;;103.55;17.48;;;0.80;99.90;;;;;;4967214;27;20095;-84
2021/01/25 07:01:10;;;;;;;79.50;16.45;;;0.90;99.90;;;;;;4962449;27;20080;-84
2021/01/25 07:03:46;;;;;;;99.50;18.92;;;0.80;99.90;;;;;;4963478;27;20156;-84
2021/01/25 07:06:14;;;;;;;85.68;16.83;;;0.80;99.90;;;;;;4965709;27;20406;-84
2021/01/25 07:08:38;;;;;;;83.75;16.90;;;0.80;99.90;;;;;;4960930;27;20120;-84
2021/01/25 07:11:03;;;;;;;84.15;17.38;;;0.80;99.90;;;;;;4962604;27;20094;-84
2021/01/25 07:13:28;;;;;;;73.30;15.75;;;0.70;99.90;;;;;;4962928;27;20098;-83
2021/01/25 07:15:53;;;;;;;68.25;15.60;;;0.70;99.90;;;;;;4961741;27;20144;-84
2021/01/25 07:18:18;;;;;;;68.82;14.85;;;0.70;99.90;;;;;;4962169;27;20080;-84
2021/01/25 07:20:41;;;;;;;74.65;15.80;;;0.80;99.90;;;;;;4963664;27;20095;-84
2021/01/25 07:23:09;;;;;;;75.68;17.35;;;0.90;99.90;;;;;;4963184;27;20118;-83
2021/01/25 07:25:32;;;;;;;72.78;16.65;;;;;;;;;;4963468;27;20120;-83
2021/01/25 07:28:03;;;;;;;82.70;16.02;;;0.80;99.90;;;;;;4962579;27;20090;-83
2021/01/25 07:30:32;;;;;;;64.25;15.23;;;0.80;99.90;;;;;;4965740;27;20171;-84
2021/01/25 07:32:57;;;;;;;62.88;15.35;;;0.90;99.90;;;;;;4966045;27;20092;-84
2021/01/25 07:35:20;;;;;;;61.08;14.38;;;0.90;99.90;;;;;;4960401;27;20092;-84
2021/01/25 07:37:43;;;;;;;67.85;16.33;;;0.90;99.90;;;;;;4973693;27;20435;-84
2021/01/25 07:40:10;;;;;;;65.07;15.90;;;0.40;99.90;;;;;;4986177;27;20084;-83
2021/01/25 07:42:33;;;;;;;55.95;14.57;;;0.90;99.90;;;;;;4983737;27;20075;-83
2021/01/25 07:44:57;;;;;;;68.28;15.65;;;0.90;99.90;;;;;;4967541;27;20091;-83
2021/01/25 07:47:21;;;;;;;61.03;16.30;;;0.90;99.90;;;;;;4964065;27;20458;-83
2021/01/25 07:49:45;;;;;;;59.78;16.02;;;0.90;99.90;;;;;;4957643;27;20097;-84
2021/01/25 07:52:17;;;;;;;58.10;15.52;;;0.90;99.90;;;;;;4976704;27;20095;-84
2021/01/25 07:54:42;;;;;;;60.28;15.68;;;0.90;99.90;;;;;;4959381;27;20140;-83
2021/01/25 07:57:22;;;;;;;64.38;14.52;;;0.90;99.90;;;;;;4964282;27;20453;-84
2021/01/25 07:59:46;;;;;;;61.13;15.23;;;0.90;99.90;;;;;;4951468;27;20079;-83
2021/01/25 08:02:12;;;;;;;66.75;15.90;;;0.90;99.90;;;;;;4972655;27;20094;-83
2021/01/25 08:04:41;;;;;;;65.82;15.93;;;0.90;99.90;;;;;;4967212;27;20418;-84
2021/01/25 08:07:05;;;;;;;61.63;16.67;;;1.00;99.90;;;;;;4952717;27;20117;-84
2021/01/25 08:09:29;;;;;;;56.97;13.70;;;1.00;99.90;;;;;;4961691;27;20545;-83
2021/01/25 08:11:54;;;;;;;57.92;15.82;;;1.00;99.90;;;;;;4961279;27;20082;-83
2021/01/25 08:14:24;;;;;;;56.97;14.97;;;1.00;99.90;;;;;;4963216;27;20096;-83
2021/01/25 08:16:51;;;;;;;63.42;16.10;;;1.00;99.90;;;;;;4963433;27;20494;-84
2021/01/25 08:19:19;;;;;;;54.20;14.90;;;0.90;99.90;;;;;;4961151;27;20091;-84
2021/01/25 08:21:49;;;;;;;61.78;15.48;;;1.00;99.90;;;;;;4978994;27;20096;-84
2021/01/25 08:24:13;;;;;;;57.25;15.50;;;;;;;;;;4980065;27;20084;-83
2021/01/25 08:26:36;;;;;;;57.25;15.13;;;0.90;99.90;;;;;;4983404;27;20098;-84
2021/01/25 08:29:03;;;;;;;53.75;14.77;;;1.00;99.90;;;;;;4982517;27;20123;-84
2021/01/25 08:31:35;;;;;;;55.28;14.88;;;1.00;99.90;;;;;;4983536;27;20102;-84
2021/01/25 08:34:00;;;;;;;59.88;16.35;;;1.00;99.90;;;;;;4965109;27;20080;-84
2021/01/25 08:36:29;;;;;;;57.97;13.73;;;1.00;99.90;;;;;;4978913;27;20096;-85
2021/01/25 08:38:55;;;;;;;53.22;13.90;;;1.10;99.90;;;;;;4960714;27;20097;-84
2021/01/25 08:41:22;;;;;;;;;;;1.10;99.90;;;;;;4964690;27;20096;-83
2021/01/25 08:43:52;;;;;;;43.65;12.43;;;1.10;99.90;;;;;;4966882;27;19964;-82
2021/01/25 08:46:17;;;;;;;43.85;12.57;;;1.10;99.90;;;;;;4962644;27;20098;-84
2021/01/25 08:48:43;;;;;;;46.75;12.73;;;1.10;99.90;;;;;;4979092;27;20093;-83
2021/01/25 08:51:10;;;;;;;;;;;1.10;99.90;;;;;;4964033;27;20181;-83
2021/01/25 08:53:34;;;;;;;40.00;12.27;;;;;;;;;;4978008;27;19966;-84
2021/01/25 08:55:58;;;;;;;47.63;13.32;;;;;;;;;;4957158;27;20090;-83
2021/01/25 08:58:26;;;;;;;47.17;13.20;;;1.30;99.90;;;;;;4963534;27;20541;-83
2021/01/25 11:06:43;;;;;;;32.95;10.48;;;;;;;;;;4937999;27;20418;-83
2021/01/25 11:09:06;;;;;;;28.30;9.77;;;3.40;99.90;;;;;;4927913;27;20089;-84
2021/01/25 11:11:30;;;;;;;26.42;10.40;;;3.40;99.90;;;;;;4918457;27;25332;-82
2021/01/25 11:13:53;;;;;;;19.30;8.40;;;3.30;99.90;;;;;;4929600;27;20101;-83
2021/01/25 11:16:18;;;;;;;22.67;8.82;;;3.00;99.90;;;;;;4931632;27;20132;-83
2021/01/25 11:18:41;;;;;;;19.92;7.85;;;3.00;99.90;;;;;;4930413;27;20086;-83
2021/01/25 11:21:04;;;;;;;102.93;19.20;;;2.90;99.90;;;;;;4930956;27;20465;-83
2021/01/25 11:23:28;;;;;;;810.15;96.18;;;2.90;99.90;;;;;;4930797;27;20164;-82
2021/01/25 11:25:52;;;;;;;128.68;30.30;;;2.80;99.90;;;;;;4931574;27;20090;-83
2021/01/25 11:28:15;;;;;;;14.68;6.75;;;2.80;99.90;;;;;;4927540;27;20107;-83
2021/01/25 11:30:41;;;;;;;13.57;6.03;;;2.70;99.90;;;;;;4929553;27;20126;-82
2021/01/25 11:33:04;;;;;;;13.30;6.32;;;2.70;99.90;;;;;;4937327;27;20480;-83
2021/01/25 11:35:27;;;;;;;14.85;6.25;;;1.10;99.90;;;;;;4943202;27;20089;-84
2021/01/25 11:37:51;;;;;;;17.00;6.90;;;2.70;99.90;;;;;;4946175;28;20085;-83
2021/01/25 11:44:27;;;;;;;14.77;6.35;;;2.50;99.90;;;;;;4924819;27;20102;-84
2021/01/25 11:47:25;;;;;;;14.30;6.15;;;2.50;99.90;;;;;;4935841;27;20449;-82
2021/01/25 11:50:37;;;;;;;15.77;6.68;;;2.40;99.90;;;;;;4925382;27;20436;-83
2021/01/25 11:53:03;;;;;;;13.30;5.40;;;2.40;99.90;;;;;;4925868;27;20089;-83
2021/01/25 11:55:27;;;;;;;13.75;6.07;;;2.40;99.90;;;;;;4926024;27;20223;-83
2021/01/25 11:57:51;;;;;;;13.40;6.13;;;2.50;99.90;;;;;;4924883;27;20090;-83
2021/01/25 12:00:16;;;;;;;14.30;5.70;;;2.60;99.90;;;;;;4930359;27;20196;-83
2021/01/25 12:02:41;;;;;;;11.23;5.78;;;2.60;99.90;;;;;;4926469;27;20101;-82
2021/01/25 12:05:05;;;;;;;14.60;6.35;;;2.70;99.90;;;;;;4925047;27;20091;-83
2021/01/25 12:07:29;;;;;;;14.50;6.00;;;2.70;99.90;;;;;;4930778;27;20090;-82
2021/01/25 12:09:52;;;;;;;15.68;6.20;;;2.60;99.90;;;;;;4930889;27;20086;-82
2021/01/25 12:12:16;;;;;;;14.75;6.13;;;2.70;99.90;;;;;;4928955;27;20437;-83
2021/01/25 12:14:39;;;;;;;13.27;6.47;;;2.70;99.90;;;;;;4931615;27;20094;-83
2021/01/25 12:17:51;;;;;;;21.20;7.20;;;2.70;99.90;;;;;;4928121;27;20112;-83
2021/01/25 12:20:17;;;;;;;15.93;6.53;;;2.50;99.90;;;;;;4927524;27;20082;-82
2021/01/25 12:22:39;;;;;;;12.10;5.53;;;2.50;99.90;;;;;;4927402;27;20463;-83
2021/01/25 12:25:04;;;;;;;12.50;5.43;;;;;;;;;;4929459;27;20097;-82
2021/01/25 12:27:28;;;;;;;13.23;5.85;;;2.50;99.90;;;;;;4943132;27;20154;-82
2021/01/25 12:29:51;;;;;;;12.70;5.70;;;2.50;99.90;;;;;;4941620;28;20079;-82
2021/01/25 12:32:14;;;;;;;14.43;5.60;;;2.40;99.90;;;;;;4927527;27;20136;-83
2021/01/25 12:34:38;;;;;;;14.40;5.97;;;1.30;99.90;;;;;;4928602;27;20521;-83
2021/01/25 12:37:02;;;;;;;11.07;5.30;;;2.40;99.90;;;;;;4927891;27;20120;-83
2021/01/25 12:39:26;;;;;;;10.45;4.78;;;;;;;;;;4928762;27;21534;-81
2021/01/25 12:41:50;;;;;;;9.95;4.28;;;2.60;99.90;;;;;;4925392;27;20527;-82
2021/01/25 12:44:15;;;;;;;8.68;4.30;;;2.60;99.90;;;;;;4927967;27;20531;-83
2021/01/25 12:46:40;;;;;;;12.73;5.67;;;;;;;;;;4927522;27;20084;-83
2021/01/25 12:49:04;;;;;;;17.67;7.72;;;2.50;99.90;;;;;;4930353;27;20093;-82
2021/01/25 12:51:28;;;;;;;13.48;5.10;;;2.50;99.90;;;;;;4922881;27;20087;-83
2021/01/25 12:53:52;;;;;;;14.10;5.65;;;2.50;99.90;;;;;;4925179;27;20166;-81
2021/01/25 12:56:15;;;;;;;11.10;5.43;;;2.50;99.90;;;;;;4926202;27;20525;-83
2021/01/25 12:58:38;;;;;;;17.25;6.03;;;2.70;99.90;;;;;;4926784;27;20094;-82
2021/01/25 13:01:01;;;;;;;14.80;6.00;;;2.80;99.90;;;;;;4927678;27;20120;-83
2021/01/25 13:03:24;;;;;;;14.15;5.50;;;2.90;99.90;;;;;;4925942;27;20090;-81
2021/01/25 13:05:47;;;;;;;12.45;5.68;;;2.90;99.90;;;;;;4942367;28;20098;-82
2021/01/25 13:08:10;;;;;;;14.57;5.10;;;2.90;99.90;;;;;;4928788;27;20097;-83
2021/01/25 13:10:35;;;;;;;13.00;5.85;;;2.90;99.90;;;;;;4925812;27;20082;-83
2021/01/25 13:12:59;;;;;;;19.75;12.00;;;2.90;99.90;;;;;;4927828;27;20102;-83
2021/01/25 13:15:24;;;;;;;17.98;8.27;;;3.00;99.90;;;;;;4925521;27;20086;-82
2021/01/25 13:17:50;;;;;;;16.50;5.95;;;2.90;99.90;;;;;;4925886;27;20117;-82
2021/01/25 13:20:17;;;;;;;;;;;2.90;99.90;;;;;;4928117;27;20461;-82
2021/01/25 13:22:40;;;;;;;17.45;6.20;;;2.80;99.90;;;;;;4930285;27;20007;-82
2021/01/25 13:25:04;;;;;;;11.52;5.40;;;2.70;99.90;;;;;;4927391;27;20144;-82
2021/01/25 13:27:30;;;;;;;13.45;4.78;;;2.70;99.90;;;;;;4927072;27;20086;-84
2021/01/25 13:29:53;;;;;;;18.60;6.22;;;2.70;99.90;;;;;;4925673;27;20098;-82
2021/01/25 13:32:17;;;;;;;13.85;5.07;;;2.70;99.90;;;;;;4926199;27;20097;-83
2021/01/25 13:34:40;;;;;;;15.80;5.80;;;2.70;99.90;;;;;;4933301;27;20092;-83
2021/01/25 13:37:05;;;;;;;14.95;6.43;;;2.70;99.90;;;;;;4930087;27;20488;-83
2021/01/25 13:39:30;;;;;;;11.15;4.68;;;;;;;;;;4851748;27;20770;-82
2021/01/25 13:41:54;;;;;;;16.58;5.88;;;2.70;99.90;;;;;;4890020;28;20087;-81
2021/01/25 13:44:18;;;;;;;12.93;5.43;;;2.70;99.90;;;;;;4918059;28;20116;-83
2021/01/25 13:46:41;;;;;;;14.88;5.47;;;;;;;;;;4928679;27;20177;-82
2021/01/25 13:49:04;;;;;;;18.63;8.27;;;2.60;99.90;;;;;;4927707;27;20144;-81
2021/01/25 13:51:28;;;;;;;19.42;7.43;;;2.70;99.90;;;;;;4925901;27;20086;-84
2021/01/25 13:53:51;;;;;;;17.75;7.10;;;2.60;99.90;;;;;;4923913;27;20092;-84
2021/01/25 13:56:15;;;;;;;15.07;6.78;;;2.60;99.90;;;;;;4928194;27;20690;-83
2021/01/25 13:58:38;;;;;;;19.95;6.95;;;2.50;99.90;;;;;;4929829;27;20101;-84
2021/01/25 14:01:06;;;;;;;17.63;6.82;;;2.60;99.90;;;;;;4928834;27;25262;-83
2021/01/25 14:03:30;;;;;;;18.58;6.63;;;2.40;99.90;;;;;;4926501;27;20098;-82
2021/01/25 14:05:54;;;;;;;16.83;6.82;;;2.10;99.90;;;;;;4919662;27;20087;-82
2021/01/25 14:08:17;;;;;;;18.02;7.07;;;1.90;99.90;;;;;;4928726;27;20539;-83
2021/01/25 14:10:41;;;;;;;19.77;6.15;;;1.90;99.90;;;;;;4931673;27;20088;-83
2021/01/25 14:13:04;;;;;;;27.65;7.05;;;1.90;99.90;;;;;;4932805;27;20121;-83
2021/01/25 14:15:28;;;;;;;16.60;6.45;;;2.00;99.90;;;;;;4951517;27;20094;-83
2021/01/25 14:17:52;;;;;;;16.75;6.18;;;1.90;99.90;;;;;;4929197;27;20122;-80
2021/01/25 14:20:18;;;;;;;15.90;5.97;;;2.00;99.90;;;;;;4930309;27;20441;-80
2021/01/25 14:22:41;;;;;;;19.75;5.18;;;2.00;99.90;;;;;;4930338;27;20098;-79
2021/01/25 14:25:08;;;;;;;15.10;5.55;;;2.00;99.90;;;;;;4941866;27;20448;-82
2021/01/25 14:27:32;;;;;;;18.52;5.97;;;2.00;99.90;;;;;;4940560;27;20093;-82
2021/01/25 14:29:55;;;;;;;15.70;6.25;;;2.00;99.90;;;;;;4941184;27;20108;-82
2021/01/25 14:32:18;;;;;;;17.85;6.18;;;1.90;99.90;;;;;;4939740;27;20177;-82
2021/01/25 14:34:44;;;;;;;13.77;5.28;;;2.00;99.90;;;;;;4940411;28;20089;-83
2021/01/25 14:37:09;;;;;;;19.67;6.75;;;1.90;99.90;;;;;;4925352;27;21104;-82
2021/01/25 14:39:32;;;;;;;20.65;6.80;;;1.90;99.90;;;;;;4920910;27;20109;-81
2021/01/25 14:41:55;;;;;;;18.08;6.95;;;1.90;99.90;;;;;;4921627;27;20110;-82
2021/01/25 14:44:18;;;;;;;20.70;7.15;;;;;;;;;;4921872;28;20455;-82
2021/01/25 14:46:41;;;;;;;20.55;6.93;;;2.00;99.90;;;;;;4918759;28;20090;-81
2021/01/25 14:49:05;;;;;;;21.15;7.35;;;1.90;99.90;;;;;;4920864;27;20092;-81